Time;durP1;ratioP1;P1;durP2;ratioP2;P2;SDS_P1;SDS_P2;PMS_P1;PMS_P2;Temp;Humidity;BMP_temperature;BMP_pressure;BME280_temperature;BME280_humidity;BME280_pressure;Samples;Min_cycle;Max_cycle;Signal;HPM_P1;HPM_P2
2023/08/19 00:01:27;;;;;;;4.57;2.53;;;;;;;;;;5012859;28;20557;-60
2023/08/19 00:06:53;;;;;;;6.13;2.60;;;;;;;;;;4997662;23;20064;-63
2023/08/19 00:09:27;;;;;;;7.40;2.40;;;;;;;;;;4998501;28;20053;-63
2023/08/19 00:12:14;;;;;;;4.40;2.35;;;;;;;;;;5004453;28;20465;-63
2023/08/19 00:15:09;;;;;;;4.30;2.63;;;;;;;;;;5006017;28;20065;-63
2023/08/19 00:17:57;;;;;;;6.82;2.33;;;;;;;;;;5005841;28;20050;-63
2023/08/19 00:20:51;;;;;;;4.90;2.67;;;;;;;;;;5000059;28;20057;-60
2023/08/19 00:23:38;;;;;;;4.38;2.88;;;;;;;;;;5001899;28;20073;-58
2023/08/19 00:26:31;;;;;;;6.40;3.20;;;;;;;;;;5002071;28;20688;-58
2023/08/19 00:29:19;;;;;;;4.15;2.42;;;;;;;;;;5003127;28;20780;-56
2023/08/19 00:32:12;;;;;;;5.65;2.78;;;;;;;;;;5002328;28;20092;-56
2023/08/19 00:34:59;;;;;;;4.97;2.83;;;;;;;;;;5005819;28;20591;-59
2023/08/19 00:37:53;;;;;;;4.32;2.70;;;;;;;;;;5001402;28;20057;-67
2023/08/19 00:40:41;;;;;;;4.47;2.40;;;;;;;;;;5004534;28;20069;-55
2023/08/19 00:43:36;;;;;;;5.13;2.88;;;;;;;;;;5001955;28;20140;-59
2023/08/19 00:46:22;;;;;;;9.48;3.40;;;;;;;;;;5003165;28;20050;-59
2023/08/19 00:49:15;;;;;;;5.68;3.15;;;;;;;;;;5000844;28;20053;-58
2023/08/19 00:52:03;;;;;;;7.28;3.22;;;;;;;;;;5003315;28;20908;-57
2023/08/19 00:54:56;;;;;;;10.00;3.33;;;;;;;;;;4998465;28;20340;-59
2023/08/19 00:57:44;;;;;;;7.18;3.15;;;;;;;;;;4998914;28;20411;-64
2023/08/19 01:00:38;;;;;;;4.53;3.40;;;;;;;;;;5000647;28;20108;-65
2023/08/19 01:03:25;;;;;;;4.90;3.47;;;;;;;;;;5006856;28;20509;-66
2023/08/19 01:06:26;;;;;;;9.18;3.83;;;;;;;;;;4998605;28;20057;-57
2023/08/19 01:09:31;;;;;;;7.00;3.33;;;;;;;;;;5003584;28;20521;-57
2023/08/19 01:12:24;;;;;;;6.32;3.75;;;;;;;;;;5003556;28;21951;-63
2023/08/19 01:15:21;;;;;;;7.65;3.83;;;;;;;;;;5002337;28;20053;-63
2023/08/19 01:18:08;;;;;;;3.38;3.08;;;;;;;;;;5001520;28;20538;-63
2023/08/19 01:21:03;;;;;;;5.00;3.80;;;;;;;;;;5003972;28;20062;-63
2023/08/19 01:23:49;;;;;;;6.80;3.97;;;;;;;;;;4999656;28;20082;-63
2023/08/19 01:26:43;;;;;;;6.55;4.00;;;;;;;;;;5000894;28;20113;-57
2023/08/19 01:29:30;;;;;;;6.00;3.90;;;;;;;;;;5000344;28;20116;-59
2023/08/19 01:32:25;;;;;;;11.43;4.45;;;;;;;;;;5000242;28;20724;-58
2023/08/19 01:35:13;;;;;;;8.38;4.03;;;;;;;;;;5002931;28;20058;-66
2023/08/19 01:38:10;;;;;;;6.15;4.38;;;;;;;;;;4999846;28;20054;-61
2023/08/19 01:40:58;;;;;;;6.20;4.10;;;;;;;;;;5001121;28;20057;-62
2023/08/19 01:43:52;;;;;;;9.40;4.18;;;;;;;;;;4999936;28;20540;-60
2023/08/19 01:46:39;;;;;;;8.23;4.18;;;;;;;;;;4995793;28;20054;-61
2023/08/19 01:49:33;;;;;;;7.07;4.50;;;;;;;;;;5000135;28;20049;-60
2023/08/19 01:52:21;;;;;;;6.18;4.20;;;;;;;;;;4997299;28;21498;-61
2023/08/19 01:55:17;;;;;;;8.13;4.47;;;;;;;;;;4997122;28;20049;-61
2023/08/19 01:58:04;;;;;;;5.13;4.50;;;;;;;;;;5000612;28;20121;-61
2023/08/19 02:00:58;;;;;;;8.48;5.05;;;;;;;;;;5001057;28;20052;-61
2023/08/19 02:03:46;;;;;;;11.98;5.00;;;;;;;;;;5002119;28;20604;-63
2023/08/19 02:06:46;;;;;;;7.95;4.93;;;;;;;;;;4998986;28;20042;-52
2023/08/19 02:09:33;;;;;;;6.00;5.00;;;;;;;;;;4999354;28;20057;-51
2023/08/19 02:12:27;;;;;;;10.15;5.38;;;;;;;;;;5002889;28;20054;-50
2023/08/19 02:15:15;;;;;;;9.05;5.28;;;;;;;;;;5000330;28;20141;-47
2023/08/19 02:18:08;;;;;;;6.22;5.03;;;;;;;;;;5003372;28;20045;-54
2023/08/19 02:20:56;;;;;;;5.93;5.18;;;;;;;;;;4999079;28;20120;-54
2023/08/19 02:23:49;;;;;;;6.95;5.00;;;;;;;;;;4997290;28;20069;-55
2023/08/19 02:26:43;;;;;;;9.10;5.13;;;;;;;;;;4999756;28;20109;-55
2023/08/19 02:29:31;;;;;;;9.82;5.05;;;;;;;;;;4999252;28;20057;-56
2023/08/19 02:32:24;;;;;;;8.05;5.50;;;;;;;;;;5001094;28;20053;-60
2023/08/19 02:35:11;;;;;;;10.35;5.10;;;;;;;;;;5002461;28;20049;-51
2023/08/19 02:38:05;;;;;;;7.07;5.20;;;;;;;;;;5000555;28;20053;-51
2023/08/19 02:40:53;;;;;;;7.80;5.35;;;;;;;;;;4998585;28;20061;-53
2023/08/19 02:43:48;;;;;;;8.82;5.20;;;;;;;;;;4998821;28;20469;-50
2023/08/19 02:46:35;;;;;;;10.73;5.78;;;;;;;;;;5000464;28;20144;-50
2023/08/19 02:49:28;;;;;;;8.88;5.28;;;;;;;;;;4995592;28;20116;-56
2023/08/19 02:52:15;;;;;;;8.32;5.18;;;;;;;;;;4999152;28;20918;-53
2023/08/19 02:55:09;;;;;;;8.27;5.40;;;;;;;;;;5001133;28;20068;-54
2023/08/19 02:57:56;;;;;;;9.57;5.50;;;;;;;;;;4999533;28;20139;-55
2023/08/19 03:00:51;;;;;;;6.93;5.40;;;;;;;;;;5001493;28;20058;-54
2023/08/19 03:03:38;;;;;;;8.93;5.22;;;;;;;;;;5002466;28;20125;-61
2023/08/19 03:06:44;;;;;;;7.45;5.18;;;;;;;;;;4999092;28;20077;-61
2023/08/19 03:09:38;;;;;;;8.30;5.40;;;;;;;;;;4995638;28;20058;-60
2023/08/19 03:12:33;;;;;;;7.47;5.53;;;;;;;;;;5001147;28;20104;-61
2023/08/19 03:15:20;;;;;;;6.00;5.10;;;;;;;;;;5002931;28;20497;-61
2023/08/19 03:18:14;;;;;;;7.15;5.10;;;;;;;;;;4998085;28;20050;-59
2023/08/19 03:21:01;;;;;;;8.07;5.15;;;;;;;;;;5000006;28;20165;-59
2023/08/19 03:23:55;;;;;;;9.07;4.95;;;;;;;;;;4995638;28;20061;-58
2023/08/19 03:26:42;;;;;;;8.52;5.88;;;;;;;;;;4997864;28;20109;-58
2023/08/19 03:29:36;;;;;;;10.35;5.25;;;;;;;;;;4998706;28;20065;-59
2023/08/19 03:32:24;;;;;;;14.10;5.45;;;;;;;;;;5002360;28;20109;-65
2023/08/19 03:35:17;;;;;;;8.32;5.25;;;;;;;;;;5004616;28;20398;-67
2023/08/19 03:38:05;;;;;;;8.55;5.38;;;;;;;;;;5002777;28;20125;-65
2023/08/19 03:40:58;;;;;;;9.00;5.10;;;;;;;;;;5002232;28;20053;-66
2023/08/19 03:43:45;;;;;;;8.93;5.38;;;;;;;;;;5002795;28;20053;-65
2023/08/19 03:46:39;;;;;;;8.73;5.28;;;;;;;;;;5003013;28;20060;-52
2023/08/19 03:49:27;;;;;;;10.88;5.40;;;;;;;;;;5001310;28;20654;-56
2023/08/19 03:52:23;;;;;;;10.48;5.57;;;;;;;;;;5002624;28;20076;-61
2023/08/19 03:55:14;;;;;;;8.80;5.53;;;;;;;;;;5003794;28;20496;-61
2023/08/19 03:58:08;;;;;;;8.10;4.90;;;;;;;;;;5002171;28;20050;-60
2023/08/19 04:01:08;;;;;;;9.95;5.25;;;;;;;;;;5002301;28;20068;-61
2023/08/19 04:04:03;;;;;;;11.82;5.20;;;;;;;;;;5001761;28;20116;-61
2023/08/19 04:06:56;;;;;;;10.25;4.63;;;;;;;;;;5005150;28;20061;-58
2023/08/19 04:09:49;;;;;;;8.15;5.10;;;;;;;;;;5001205;28;20095;-66
2023/08/19 04:12:37;;;;;;;8.57;5.45;;;;;;;;;;5001404;28;20054;-66
2023/08/19 04:15:31;;;;;;;9.05;5.15;;;;;;;;;;5006297;28;20054;-65
2023/08/19 04:18:18;;;;;;;10.20;5.35;;;;;;;;;;5003321;28;20096;-66
2023/08/19 04:21:11;;;;;;;13.00;5.40;;;;;;;;;;5002649;28;20430;-66
2023/08/19 04:23:59;;;;;;;9.07;4.60;;;;;;;;;;5001826;28;20057;-66
2023/08/19 04:26:52;;;;;;;9.63;5.28;;;;;;;;;;5003777;28;20061;-60
2023/08/19 04:29:39;;;;;;;9.80;5.00;;;;;;;;;;5002038;28;20506;-61
2023/08/19 04:32:33;;;;;;;7.50;4.97;;;;;;;;;;5003162;28;20057;-60
2023/08/19 04:35:27;;;;;;;7.05;4.90;;;;;;;;;;5004447;28;20046;-60
2023/08/19 04:38:21;;;;;;;9.90;5.18;;;;;;;;;;5007309;28;20441;-60
2023/08/19 04:41:08;;;;;;;7.45;5.15;;;;;;;;;;5000837;28;20467;-59
2023/08/19 04:44:01;;;;;;;6.30;4.93;;;;;;;;;;5001280;28;20078;-55
2023/08/19 04:46:49;;;;;;;7.82;4.97;;;;;;;;;;4999437;28;20357;-58
2023/08/19 04:49:42;;;;;;;11.27;4.80;;;;;;;;;;5000018;28;20049;-57
2023/08/19 04:52:31;;;;;;;9.35;4.82;;;;;;;;;;4999470;28;20054;-61
2023/08/19 04:55:23;;;;;;;6.10;4.60;;;;;;;;;;5000411;28;20139;-60
2023/08/19 04:58:11;;;;;;;8.45;4.90;;;;;;;;;;5002009;28;20049;-60
2023/08/19 05:01:04;;;;;;;6.90;4.85;;;;;;;;;;5003408;28;20085;-60
2023/08/19 05:03:52;;;;;;;10.18;4.55;;;;;;;;;;5002524;28;20497;-60
2023/08/19 05:06:52;;;;;;;8.63;4.80;;;;;;;;;;5000307;28;20061;-60
2023/08/19 05:09:46;;;;;;;8.00;4.97;;;;;;;;;;5002434;28;20065;-60
2023/08/19 05:12:41;;;;;;;5.95;3.88;;;;;;;;;;5003561;28;20049;-62
2023/08/19 05:15:28;;;;;;;12.07;4.38;;;;;;;;;;5000446;28;20046;-62
2023/08/19 05:18:21;;;;;;;8.45;4.55;;;;;;;;;;4999342;28;20231;-62
2023/08/19 05:21:09;;;;;;;7.28;4.45;;;;;;;;;;4998526;28;20053;-54
2023/08/19 05:24:03;;;;;;;8.13;4.53;;;;;;;;;;5002219;28;20065;-58
2023/08/19 05:26:50;;;;;;;5.32;4.18;;;;;;;;;;5002700;28;20054;-58
2023/08/19 05:29:43;;;;;;;8.85;4.57;;;;;;;;;;5003596;28;20125;-57
2023/08/19 05:32:30;;;;;;;7.15;4.45;;;;;;;;;;5002103;28;20058;-59
2023/08/19 05:35:24;;;;;;;5.18;4.00;;;;;;;;;;4997503;28;20060;-59
2023/08/19 05:38:12;;;;;;;8.35;4.38;;;;;;;;;;5002754;28;20587;-56
2023/08/19 05:41:07;;;;;;;8.45;4.70;;;;;;;;;;5001825;28;20163;-58
2023/08/19 05:43:54;;;;;;;5.20;3.75;;;;;;;;;;5001574;28;20050;-56
2023/08/19 05:46:50;;;;;;;9.77;4.03;;;;;;;;;;5001904;28;20046;-58
2023/08/19 05:49:36;;;;;;;5.60;4.15;;;;;;;;;;4997573;28;20104;-50
2023/08/19 05:52:29;;;;;;;7.82;3.72;;;;;;;;;;4999889;28;20507;-62
2023/08/19 05:55:23;;;;;;;5.85;3.83;;;;;;;;;;4999616;28;20112;-62
2023/08/19 05:58:17;;;;;;;4.78;3.88;;;;;;;;;;5003548;28;20077;-62
2023/08/19 06:01:11;;;;;;;4.97;3.65;;;;;;;;;;4999939;28;20136;-62
2023/08/19 06:04:05;;;;;;;8.02;3.65;;;;;;;;;;5002178;28;20270;-62
2023/08/19 06:06:59;;;;;;;5.47;3.60;;;;;;;;;;5000875;28;20062;-62
2023/08/19 06:09:54;;;;;;;4.55;3.80;;;;;;;;;;4999500;28;20054;-53
2023/08/19 06:12:41;;;;;;;7.95;3.83;;;;;;;;;;5000262;28;20057;-55
2023/08/19 06:15:35;;;;;;;4.47;3.45;;;;;;;;;;5000996;28;20052;-53
2023/08/19 06:18:22;;;;;;;9.50;3.83;;;;;;;;;;4999402;28;20050;-62
2023/08/19 06:21:17;;;;;;;7.38;3.35;;;;;;;;;;4998040;28;20085;-62
2023/08/19 06:24:03;;;;;;;9.55;3.50;;;;;;;;;;5001321;28;20054;-61
2023/08/19 06:26:58;;;;;;;5.30;3.47;;;;;;;;;;5009924;28;20045;-62
2023/08/19 06:29:52;;;;;;;6.70;3.78;;;;;;;;;;5003831;28;20049;-62
2023/08/19 06:32:39;;;;;;;5.55;3.75;;;;;;;;;;5003029;28;20058;-63
2023/08/19 06:35:37;;;;;;;6.00;3.83;;;;;;;;;;5005249;28;20472;-62
2023/08/19 06:38:29;;;;;;;5.30;3.75;;;;;;;;;;4997439;28;20501;-57
2023/08/19 06:41:23;;;;;;;5.10;3.80;;;;;;;;;;5000875;28;20046;-58
2023/08/19 06:44:10;;;;;;;5.68;3.53;;;;;;;;;;4999927;28;20604;-58
2023/08/19 06:47:07;;;;;;;5.57;3.65;;;;;;;;;;5001590;28;20520;-51
2023/08/19 06:49:52;;;;;;;7.43;3.65;;;;;;;;;;4996180;28;20053;-62
2023/08/19 06:52:45;;;;;;;6.05;3.95;;;;;;;;;;5000783;28;20094;-61
2023/08/19 06:55:33;;;;;;;6.28;3.40;;;;;;;;;;5000019;28;20560;-61
2023/08/19 06:58:29;;;;;;;7.30;3.53;;;;;;;;;;4998575;28;20057;-62
2023/08/19 07:01:34;;;;;;;5.63;3.45;;;;;;;;;;4998619;28;20116;-62
2023/08/19 07:04:29;;;;;;;5.25;3.70;;;;;;;;;;5000780;28;20148;-59
2023/08/19 07:07:24;;;;;;;9.90;3.53;;;;;;;;;;5001922;28;20099;-58
2023/08/19 07:10:21;;;;;;;5.68;3.72;;;;;;;;;;4995585;28;20116;-58
2023/08/19 07:13:08;;;;;;;5.25;3.40;;;;;;;;;;4999354;28;20109;-58
2023/08/19 07:16:04;;;;;;;6.90;4.05;;;;;;;;;;5003442;28;20077;-64
2023/08/19 07:18:53;;;;;;;5.93;3.58;;;;;;;;;;4995501;28;20053;-63
2023/08/19 07:21:46;;;;;;;7.80;3.70;;;;;;;;;;4995388;28;20057;-62
2023/08/19 07:24:33;;;;;;;5.30;3.55;;;;;;;;;;4997303;28;20054;-61
2023/08/19 07:27:27;;;;;;;5.30;3.55;;;;;;;;;;4995035;28;20058;-61
2023/08/19 07:30:14;;;;;;;6.10;3.20;;;;;;;;;;5001868;28;20046;-62
2023/08/19 07:33:11;;;;;;;5.75;4.00;;;;;;;;;;5005547;28;20415;-51
2023/08/19 07:35:56;;;;;;;7.38;4.38;;;;;;;;;;5005913;28;20062;-59
2023/08/19 07:38:50;;;;;;;5.90;3.50;;;;;;;;;;5004295;28;20100;-58
2023/08/19 07:41:43;;;;;;;8.68;3.97;;;;;;;;;;5001940;28;20056;-58
2023/08/19 07:44:36;;;;;;;;;;;;;;;;;;5004250;28;20590;-59
2023/08/19 07:47:30;;;;;;;5.75;3.75;;;;;;;;;;5006085;28;20011;-53
2023/08/19 07:50:18;;;;;;;7.18;3.83;;;;;;;;;;4998367;28;20057;-57
2023/08/19 07:53:12;;;;;;;5.93;3.97;;;;;;;;;;4999611;28;20416;-58
2023/08/19 07:55:59;;;;;;;5.13;4.03;;;;;;;;;;4997196;28;20371;-59
2023/08/19 07:58:57;;;;;;;4.63;3.92;;;;;;;;;;4998075;28;20056;-57
2023/08/19 08:01:44;;;;;;;5.22;3.95;;;;;;;;;;5007013;28;20132;-58
2023/08/19 08:04:37;;;;;;;6.75;4.50;;;;;;;;;;5004869;28;20117;-48
2023/08/19 08:07:31;;;;;;;7.63;4.40;;;;;;;;;;5005872;28;20412;-51
2023/08/19 08:10:26;;;;;;;7.93;4.18;;;;;;;;;;5002708;28;20049;-52
2023/08/19 08:13:13;;;;;;;5.85;4.25;;;;;;;;;;5003901;28;20046;-52
2023/08/19 08:16:07;;;;;;;7.28;4.25;;;;;;;;;;5003867;28;20512;-50
2023/08/19 08:18:54;;;;;;;8.65;4.40;;;;;;;;;;5002767;28;20453;-55
2023/08/19 08:21:48;;;;;;;6.53;4.25;;;;;;;;;;5003543;28;20057;-57
2023/08/19 08:24:35;;;;;;;8.43;4.18;;;;;;;;;;5002962;28;20139;-59
2023/08/19 08:27:29;;;;;;;8.43;4.28;;;;;;;;;;5006486;28;20054;-58
2023/08/19 08:30:17;;;;;;;6.93;4.40;;;;;;;;;;5009025;28;20050;-57
2023/08/19 08:33:10;;;;;;;6.85;4.55;;;;;;;;;;5010129;28;20105;-65
2023/08/19 08:35:58;;;;;;;5.55;4.35;;;;;;;;;;5008942;28;20129;-66
2023/08/19 08:38:51;;;;;;;9.18;4.28;;;;;;;;;;5008096;28;20769;-66
2023/08/19 08:41:39;;;;;;;10.35;4.20;;;;;;;;;;5001192;28;20050;-65
2023/08/19 08:44:33;;;;;;;15.27;4.38;;;;;;;;;;5006780;28;20121;-66
2023/08/19 08:47:20;;;;;;;5.40;4.00;;;;;;;;;;5008777;28;20046;-65
2023/08/19 08:50:15;;;;;;;6.25;4.43;;;;;;;;;;5007565;28;20046;-56
2023/08/19 08:53:03;;;;;;;6.10;4.18;;;;;;;;;;5007990;28;20562;-57
2023/08/19 08:55:57;;;;;;;6.50;3.72;;;;;;;;;;5007508;28;20139;-58
2023/08/19 08:58:44;;;;;;;7.97;3.78;;;;;;;;;;5009205;28;20120;-58
2023/08/19 09:01:38;;;;;;;8.52;4.32;;;;;;;;;;5008718;28;20457;-66
2023/08/19 09:04:26;;;;;;;8.93;4.32;;;;;;;;;;5010791;28;20057;-65
2023/08/19 09:07:28;;;;;;;6.32;4.00;;;;;;;;;;5009221;28;20052;-66
2023/08/19 09:10:23;;;;;;;8.82;4.05;;;;;;;;;;5009348;28;20497;-65
2023/08/19 09:13:22;;;;;;;9.15;4.22;;;;;;;;;;5004791;28;20045;-66
2023/08/19 09:16:15;;;;;;;6.85;4.22;;;;;;;;;;5007139;28;20467;-59
2023/08/19 09:19:10;;;;;;;7.82;4.43;;;;;;;;;;5004682;28;20464;-55
2023/08/19 09:21:57;;;;;;;6.20;3.80;;;;;;;;;;5005603;28;20109;-55
2023/08/19 09:24:53;;;;;;;11.63;4.05;;;;;;;;;;5003010;28;20069;-54
2023/08/19 09:27:46;;;;;;;10.32;4.03;;;;;;;;;;5005549;28;20042;-54
2023/08/19 09:30:35;;;;;;;7.53;4.40;;;;;;;;;;5007898;28;20054;-60
2023/08/19 09:33:35;;;;;;;7.93;4.13;;;;;;;;;;5005755;28;20065;-60
2023/08/19 09:36:30;;;;;;;10.55;4.28;;;;;;;;;;5007254;28;20061;-60
2023/08/19 09:39:19;;;;;;;5.97;3.97;;;;;;;;;;5012031;28;20045;-60
2023/08/19 09:42:12;;;;;;;7.15;4.13;;;;;;;;;;5007140;28;20060;-60
2023/08/19 09:44:59;;;;;;;5.95;4.40;;;;;;;;;;5005213;28;20282;-57
2023/08/19 09:47:54;;;;;;;7.63;4.10;;;;;;;;;;5002652;28;20060;-57
2023/08/19 09:50:45;;;;;;;5.77;4.30;;;;;;;;;;5007396;28;20054;-56
2023/08/19 09:53:39;;;;;;;5.28;3.95;;;;;;;;;;5008349;28;20049;-55
2023/08/19 09:56:27;;;;;;;4.95;4.30;;;;;;;;;;5005587;28;20054;-59
2023/08/19 09:59:21;;;;;;;9.38;4.07;;;;;;;;;;5003363;28;20319;-60
2023/08/19 10:02:10;;;;;;;4.55;4.15;;;;;;;;;;5002754;28;20756;-60
2023/08/19 10:05:05;;;;;;;6.75;4.40;;;;;;;;;;5004653;28;20049;-59
2023/08/19 10:08:01;;;;;;;6.20;3.97;;;;;;;;;;5002251;28;20575;-60
2023/08/19 10:10:55;;;;;;;8.68;4.30;;;;;;;;;;5005503;28;20073;-60
2023/08/19 10:13:45;;;;;;;7.70;4.32;;;;;;;;;;5000490;28;20062;-58
2023/08/19 10:16:48;;;;;;;10.40;4.07;;;;;;;;;;5000982;28;20509;-57
2023/08/19 10:19:48;;;;;;;9.07;4.40;;;;;;;;;;5003780;28;20124;-53
2023/08/19 10:22:45;;;;;;;8.90;4.50;;;;;;;;;;5001941;28;20136;-59
2023/08/19 10:25:32;;;;;;;8.70;4.57;;;;;;;;;;5001709;28;20136;-59
2023/08/19 10:28:28;;;;;;;8.35;4.35;;;;;;;;;;5003866;28;20069;-58
2023/08/19 10:31:27;;;;;;;6.90;3.95;;;;;;;;;;5005031;28;20053;-60
2023/08/19 10:34:20;;;;;;;7.63;4.47;;;;;;;;;;5004909;28;20101;-59
2023/08/19 10:37:13;;;;;;;7.20;3.80;;;;;;;;;;5008805;28;20176;-59
2023/08/19 10:40:08;;;;;;;5.72;3.90;;;;;;;;;;5004348;28;20072;-56
2023/08/19 10:43:02;;;;;;;7.22;3.90;;;;;;;;;;5005643;28;20469;-63
2023/08/19 10:45:56;;;;;;;4.93;3.70;;;;;;;;;;5005561;28;20143;-62
2023/08/19 10:48:50;;;;;;;6.93;4.00;;;;;;;;;;5006540;28;20057;-62
2023/08/19 10:51:53;;;;;;;8.77;3.90;;;;;;;;;;5005088;28;20105;-63
2023/08/19 10:54:48;;;;;;;6.68;4.07;;;;;;;;;;5005070;28;20100;-65
2023/08/19 10:57:38;;;;;;;4.85;4.20;;;;;;;;;;5005807;28;20057;-66
2023/08/19 11:00:31;;;;;;;7.53;4.20;;;;;;;;;;5004539;28;20516;-66
2023/08/19 11:03:19;;;;;;;7.20;3.70;;;;;;;;;;5003086;28;20053;-66
2023/08/19 11:06:19;;;;;;;8.00;4.13;;;;;;;;;;4999831;28;20042;-66
2023/08/19 11:09:13;;;;;;;8.02;4.20;;;;;;;;;;5002073;28;20140;-66
2023/08/19 11:12:07;;;;;;;7.05;3.80;;;;;;;;;;5000310;28;20057;-59
2023/08/19 11:15:01;;;;;;;7.85;4.00;;;;;;;;;;5003609;28;20053;-56
2023/08/19 11:17:48;;;;;;;8.60;4.03;;;;;;;;;;5000033;28;20054;-59
2023/08/19 11:20:43;;;;;;;5.22;3.80;;;;;;;;;;4999885;28;20115;-53
2023/08/19 11:23:30;;;;;;;8.63;4.20;;;;;;;;;;5002176;28;20168;-59
2023/08/19 11:26:24;;;;;;;11.23;4.70;;;;;;;;;;5003225;28;20081;-59
2023/08/19 11:29:11;;;;;;;6.20;3.65;;;;;;;;;;4999379;28;20058;-59
2023/08/19 11:32:05;;;;;;;6.03;3.72;;;;;;;;;;5000757;28;20050;-59
2023/08/19 11:34:52;;;;;;;6.23;3.90;;;;;;;;;;5000667;28;20053;-59
2023/08/19 11:37:45;;;;;;;6.30;4.00;;;;;;;;;;5003061;28;20045;-58
2023/08/19 11:40:33;;;;;;;8.57;4.22;;;;;;;;;;5007267;28;20058;-58
2023/08/19 11:43:27;;;;;;;7.80;3.42;;;;;;;;;;5003584;28;20069;-58
2023/08/19 11:46:14;;;;;;;6.50;4.20;;;;;;;;;;5004412;28;20416;-58
2023/08/19 11:49:09;;;;;;;6.82;3.95;;;;;;;;;;5005404;28;20057;-66
2023/08/19 11:51:58;;;;;;;7.65;4.35;;;;;;;;;;5006270;28;20113;-64
2023/08/19 11:55:08;;;;;;;5.70;3.95;;;;;;;;;;5005705;28;20425;-63
2023/08/19 11:57:56;;;;;;;6.43;3.95;;;;;;;;;;5009762;28;20053;-63
2023/08/19 12:00:53;;;;;;;6.18;3.50;;;;;;;;;;5007183;28;20054;-63
2023/08/19 12:03:44;;;;;;;14.20;4.45;;;;;;;;;;5004837;28;20181;-63
2023/08/19 12:06:44;;;;;;;6.32;4.00;;;;;;;;;;5009953;28;20055;-63
2023/08/19 12:09:47;;;;;;;6.82;3.90;;;;;;;;;;5007009;28;20053;-61
2023/08/19 12:12:34;;;;;;;6.20;3.85;;;;;;;;;;5008530;28;20056;-63
2023/08/19 12:15:29;;;;;;;8.55;4.07;;;;;;;;;;5005217;28;20054;-60
2023/08/19 12:18:17;;;;;;;9.97;4.50;;;;;;;;;;5000934;28;20057;-66
2023/08/19 12:21:10;;;;;;;9.43;4.30;;;;;;;;;;5003331;28;20069;-58
2023/08/19 12:23:58;;;;;;;4.72;3.70;;;;;;;;;;5001468;28;20084;-59
2023/08/19 12:26:52;;;;;;;5.72;3.88;;;;;;;;;;5003091;28;20105;-59
2023/08/19 12:29:40;;;;;;;7.40;3.83;;;;;;;;;;5002125;28;20458;-60
2023/08/19 12:32:33;;;;;;;9.55;4.20;;;;;;;;;;5003097;28;20058;-59
2023/08/19 12:35:21;;;;;;;4.75;3.90;;;;;;;;;;5009375;28;20045;-59
2023/08/19 12:38:15;;;;;;;5.93;4.05;;;;;;;;;;5004588;28;20053;-66
2023/08/19 12:41:09;;;;;;;7.65;4.32;;;;;;;;;;5007318;28;20049;-65
2023/08/19 12:43:56;;;;;;;6.78;3.95;;;;;;;;;;5006190;28;20050;-66
2023/08/19 12:46:51;;;;;;;6.55;3.85;;;;;;;;;;5001965;28;20049;-59
2023/08/19 12:49:37;;;;;;;6.22;3.92;;;;;;;;;;5003246;28;20049;-52
2023/08/19 12:52:31;;;;;;;9.30;4.35;;;;;;;;;;5004898;28;20081;-51
2023/08/19 12:55:18;;;;;;;6.88;3.67;;;;;;;;;;5004163;28;20061;-55
2023/08/19 12:58:12;;;;;;;6.10;4.22;;;;;;;;;;5003329;28;20394;-55
2023/08/19 13:00:59;;;;;;;6.05;4.68;;;;;;;;;;5004415;28;21302;-52
2023/08/19 13:03:53;;;;;;;5.78;3.85;;;;;;;;;;5004571;28;20049;-60
2023/08/19 13:06:47;;;;;;;8.90;4.05;;;;;;;;;;4995326;28;20140;-60
2023/08/19 13:09:47;;;;;;;4.97;4.18;;;;;;;;;;5001839;28;20100;-61
2023/08/19 13:12:35;;;;;;;8.65;3.97;;;;;;;;;;4999993;28;20054;-61
2023/08/19 13:15:35;;;;;;;6.28;4.05;;;;;;;;;;5003205;28;20073;-59
2023/08/19 13:18:22;;;;;;;5.85;3.55;;;;;;;;;;5000949;28;20057;-61
2023/08/19 13:21:16;;;;;;;5.28;4.07;;;;;;;;;;5003683;28;20597;-61
2023/08/19 13:24:03;;;;;;;7.72;4.65;;;;;;;;;;5000266;28;20545;-62
2023/08/19 13:26:57;;;;;;;8.50;4.03;;;;;;;;;;5002565;28;20167;-61
2023/08/19 13:29:44;;;;;;;10.15;4.18;;;;;;;;;;4999040;28;20134;-61
2023/08/19 13:32:38;;;;;;;7.13;3.92;;;;;;;;;;5002443;28;20053;-53
2023/08/19 13:35:25;;;;;;;6.53;4.50;;;;;;;;;;5000472;28;20737;-54
2023/08/19 13:38:18;;;;;;;5.70;4.22;;;;;;;;;;5003307;28;20120;-54
2023/08/19 13:41:06;;;;;;;5.35;4.30;;;;;;;;;;5010011;28;20046;-56
2023/08/19 13:44:00;;;;;;;9.90;4.55;;;;;;;;;;5004593;28;20065;-59
2023/08/19 13:46:47;;;;;;;6.47;4.13;;;;;;;;;;5003710;28;20590;-60
2023/08/19 13:49:41;;;;;;;4.78;3.97;;;;;;;;;;5003220;28;20128;-59
2023/08/19 13:52:37;;;;;;;8.70;4.00;;;;;;;;;;5004709;28;20483;-59
2023/08/19 13:55:31;;;;;;;8.35;4.40;;;;;;;;;;5003274;28;20581;-59
2023/08/19 13:58:18;;;;;;;7.25;4.03;;;;;;;;;;5006877;28;20561;-59
2023/08/19 14:01:12;;;;;;;8.55;4.28;;;;;;;;;;5007154;28;20497;-51
2023/08/19 14:03:59;;;;;;;5.13;4.18;;;;;;;;;;5004674;28;20135;-54
2023/08/19 14:07:05;;;;;;;5.40;4.18;;;;;;;;;;5005967;28;20116;-52
2023/08/19 14:10:00;;;;;;;6.20;4.65;;;;;;;;;;5002611;28;20152;-53
2023/08/19 14:12:54;;;;;;;7.95;4.93;;;;;;;;;;5001741;28;20074;-56
2023/08/19 14:15:42;;;;;;;8.60;4.35;;;;;;;;;;5001134;28;20061;-59
2023/08/19 14:18:35;;;;;;;5.35;4.15;;;;;;;;;;4999791;28;20061;-60
2023/08/19 14:21:22;;;;;;;4.95;4.20;;;;;;;;;;4998869;28;20074;-60
2023/08/19 14:24:16;;;;;;;8.35;4.40;;;;;;;;;;4999697;28;20105;-59
2023/08/19 14:27:03;;;;;;;6.43;4.40;;;;;;;;;;5001637;28;20053;-59
2023/08/19 14:29:57;;;;;;;5.28;4.32;;;;;;;;;;5006408;28;20055;-60
2023/08/19 14:32:44;;;;;;;7.20;4.63;;;;;;;;;;5001090;28;20121;-59
2023/08/19 14:35:38;;;;;;;7.88;4.95;;;;;;;;;;4992298;28;20054;-60
2023/08/19 14:38:25;;;;;;;7.50;4.53;;;;;;;;;;4996236;28;20160;-60
2023/08/19 14:41:19;;;;;;;7.45;5.05;;;;;;;;;;5001124;28;20136;-60
2023/08/19 14:44:06;;;;;;;8.25;5.00;;;;;;;;;;4996833;28;20046;-67
2023/08/19 14:47:00;;;;;;;5.57;4.90;;;;;;;;;;4999007;28;20057;-67
2023/08/19 14:49:47;;;;;;;7.53;4.68;;;;;;;;;;4999711;28;20060;-67
2023/08/19 14:52:41;;;;;;;9.77;5.18;;;;;;;;;;4994576;28;20058;-67
2023/08/19 14:55:28;;;;;;;9.00;5.35;;;;;;;;;;4994354;28;20053;-64
2023/08/19 14:58:22;;;;;;;6.65;4.82;;;;;;;;;;5000218;28;20057;-59
2023/08/19 15:01:17;;;;;;;8.95;4.68;;;;;;;;;;5000061;28;20132;-61
2023/08/19 15:04:04;;;;;;;6.65;5.25;;;;;;;;;;4996907;28;20092;-62
2023/08/19 15:07:04;;;;;;;6.30;5.38;;;;;;;;;;4988026;28;20175;-62
2023/08/19 15:09:50;;;;;;;11.00;5.20;;;;;;;;;;4994877;28;20459;-57
2023/08/19 15:12:45;;;;;;;9.82;5.90;;;;;;;;;;4995622;28;20130;-57
2023/08/19 15:15:32;;;;;;;10.97;6.07;;;;;;;;;;4997846;28;20101;-58
2023/08/19 15:18:27;;;;;;;6.18;5.38;;;;;;;;;;5000531;28;20392;-58
2023/08/19 15:21:14;;;;;;;6.95;5.05;;;;;;;;;;4999402;28;20054;-58
2023/08/19 15:24:08;;;;;;;6.47;5.82;;;;;;;;;;4993523;28;20054;-58
2023/08/19 15:26:55;;;;;;;6.73;5.47;;;;;;;;;;4999063;28;20054;-59
2023/08/19 15:29:49;;;;;;;7.00;5.20;;;;;;;;;;4997319;28;20495;-58
2023/08/19 15:32:36;;;;;;;6.22;5.25;;;;;;;;;;5001217;28;20058;-59
2023/08/19 15:35:30;;;;;;;7.88;5.50;;;;;;;;;;4997326;28;20050;-59
2023/08/19 15:38:17;;;;;;;6.88;5.45;;;;;;;;;;4996027;28;20743;-54
2023/08/19 15:41:10;;;;;;;10.20;6.03;;;;;;;;;;4995941;28;20719;-60
2023/08/19 15:43:59;;;;;;;;;;;;;;;;;;5001192;28;20064;-60
2023/08/19 15:46:53;;;;;;;6.97;5.30;;;;;;;;;;5001243;28;20043;-60
2023/08/19 15:49:40;;;;;;;6.10;5.45;;;;;;;;;;5004425;28;20057;-61
2023/08/19 15:52:34;;;;;;;7.93;5.35;;;;;;;;;;5002579;28;20049;-60
2023/08/19 15:55:21;;;;;;;12.95;5.90;;;;;;;;;;5003255;28;20060;-60
2023/08/19 15:58:15;;;;;;;13.57;5.88;;;;;;;;;;5004589;28;20077;-60
2023/08/19 16:01:05;;;;;;;9.90;5.45;;;;;;;;;;5002934;28;20129;-60
2023/08/19 16:03:59;;;;;;;7.80;5.53;;;;;;;;;;4999503;28;20056;-60
2023/08/19 16:06:46;;;;;;;9.48;5.57;;;;;;;;;;5003941;28;20404;-63
2023/08/19 16:09:46;;;;;;;8.05;5.47;;;;;;;;;;4980837;28;20054;-59
2023/08/19 16:12:34;;;;;;;9.40;5.20;;;;;;;;;;4981015;28;20054;-58
2023/08/19 16:15:29;;;;;;;7.22;5.70;;;;;;;;;;4983326;28;20147;-60
2023/08/19 16:18:18;;;;;;;6.38;5.18;;;;;;;;;;4980467;28;20537;-59
2023/08/19 16:21:12;;;;;;;10.75;5.80;;;;;;;;;;4977528;28;20192;-59
2023/08/19 16:23:59;;;;;;;7.38;6.07;;;;;;;;;;4984827;28;20498;-65
2023/08/19 16:26:53;;;;;;;10.13;5.55;;;;;;;;;;4980183;28;20253;-66
2023/08/19 16:29:41;;;;;;;8.73;5.82;;;;;;;;;;4983065;28;20051;-65
2023/08/19 16:32:35;;;;;;;6.13;5.00;;;;;;;;;;4985314;28;20055;-65
2023/08/19 16:35:22;;;;;;;11.20;5.70;;;;;;;;;;4980118;28;20508;-65
2023/08/19 16:38:16;;;;;;;8.68;6.25;;;;;;;;;;4982661;28;20124;-58
2023/08/19 16:41:05;;;;;;;7.10;6.38;;;;;;;;;;4980490;28;20510;-58
2023/08/19 16:43:57;;;;;;;6.47;5.53;;;;;;;;;;4980850;28;20163;-58
2023/08/19 16:46:44;;;;;;;10.13;6.07;;;;;;;;;;4977554;28;20141;-57
2023/08/19 16:49:38;;;;;;;7.07;5.97;;;;;;;;;;4982821;28;20578;-57
2023/08/19 16:52:26;;;;;;;8.20;5.45;;;;;;;;;;4983521;28;20109;-62
2023/08/19 16:55:19;;;;;;;10.43;6.05;;;;;;;;;;4980745;28;20058;-63
2023/08/19 16:58:13;;;;;;;7.82;6.30;;;;;;;;;;4979821;28;20531;-63
2023/08/19 17:01:07;;;;;;;6.22;5.57;;;;;;;;;;4977981;28;20145;-62
2023/08/19 17:03:55;;;;;;;11.98;6.38;;;;;;;;;;4978032;28;20069;-58
2023/08/19 17:06:49;;;;;;;10.15;5.97;;;;;;;;;;4977994;28;20054;-54
2023/08/19 17:09:43;;;;;;;8.45;6.00;;;;;;;;;;4977472;28;20335;-54
2023/08/19 17:12:37;;;;;;;7.70;6.10;;;;;;;;;;4982540;28;20261;-54